createdAt,value
2018-05-21T00:01:06.496Z,99.90
2018-05-21T00:03:35.359Z,99.90
2018-05-21T00:06:03.468Z,99.90
2018-05-21T00:08:31.554Z,99.90
2018-05-21T00:10:59.659Z,99.90
2018-05-21T00:13:27.863Z,99.90
2018-05-21T00:15:56.176Z,99.90
2018-05-21T00:18:24.267Z,99.90
2018-05-21T00:20:53.257Z,99.90
2018-05-21T00:23:21.983Z,99.90
2018-05-21T00:25:50.336Z,99.90
2018-05-21T00:28:18.606Z,99.90
2018-05-21T00:30:46.731Z,99.90
2018-05-21T00:33:14.800Z,99.90
2018-05-21T00:35:44.504Z,99.90
2018-05-21T00:38:12.649Z,99.90
2018-05-21T00:40:40.755Z,99.90
2018-05-21T00:43:09.649Z,99.90
2018-05-21T00:45:37.736Z,99.90
2018-05-21T00:48:05.825Z,99.90
2018-05-21T00:50:34.181Z,99.90
2018-05-21T00:53:02.296Z,99.90
2018-05-21T00:55:39.216Z,99.90
2018-05-21T00:58:07.316Z,99.90
2018-05-21T01:00:35.375Z,99.90
2018-05-21T01:03:04.252Z,99.90
2018-05-21T01:05:32.444Z,99.90
2018-05-21T01:08:00.517Z,99.90
2018-05-21T01:10:30.276Z,99.90
2018-05-21T01:12:58.356Z,99.90
2018-05-21T01:15:27.228Z,99.90
2018-05-21T01:17:55.305Z,99.90
2018-05-21T01:20:24.211Z,99.90
2018-05-21T01:22:52.299Z,99.90
2018-05-21T01:25:20.391Z,99.90
2018-05-21T01:27:48.455Z,99.90
2018-05-21T01:30:16.552Z,99.90
2018-05-21T01:32:44.620Z,99.90
2018-05-21T01:35:13.453Z,99.90
2018-05-21T01:37:41.547Z,99.90
2018-05-21T01:40:09.622Z,99.90
2018-05-21T01:42:37.699Z,99.90
2018-05-21T01:45:05.782Z,99.90
2018-05-21T01:47:34.649Z,99.90
2018-05-21T01:50:02.726Z,99.90
2018-05-21T01:52:30.851Z,99.90
2018-05-21T01:54:59.170Z,99.90
2018-05-21T01:57:28.163Z,99.90
2018-05-21T01:59:56.348Z,99.90
2018-05-21T02:02:25.543Z,99.90
2018-05-21T02:04:53.643Z,99.90
2018-05-21T02:07:21.720Z,99.90
2018-05-21T02:09:50.660Z,99.90
2018-05-21T02:12:18.724Z,99.90
2018-05-21T02:14:46.835Z,99.90
2018-05-21T02:17:15.066Z,99.90
2018-05-21T02:19:43.180Z,99.90
2018-05-21T02:22:11.401Z,99.90
2018-05-21T02:24:40.304Z,99.90
2018-05-21T02:27:08.466Z,99.90
2018-05-21T02:29:37.384Z,99.90
2018-05-21T02:32:06.172Z,99.90
2018-05-21T02:34:35.731Z,99.90
2018-05-21T02:37:03.969Z,99.90
2018-05-21T02:39:32.037Z,99.90
2018-05-21T02:42:00.135Z,99.90
2018-05-21T02:44:28.196Z,99.90
2018-05-21T02:46:57.376Z,99.90
2018-05-21T02:49:25.584Z,99.90
2018-05-21T02:51:53.653Z,99.90
2018-05-21T02:54:21.742Z,99.90
2018-05-21T02:56:51.648Z,99.90
2018-05-21T02:59:24.061Z,99.90
2018-05-21T03:01:52.140Z,99.90
2018-05-21T03:04:20.240Z,99.90
2018-05-21T03:06:48.327Z,99.90
2018-05-21T03:09:17.186Z,99.90
2018-05-21T03:11:45.264Z,99.90
2018-05-21T03:14:13.341Z,99.90
2018-05-21T03:16:41.449Z,99.90
2018-05-21T03:19:10.680Z,99.90
2018-05-21T03:21:39.553Z,99.90
2018-05-21T03:24:07.631Z,99.90
2018-05-21T03:26:35.724Z,99.90
2018-05-21T03:29:03.789Z,99.90
2018-05-21T03:31:32.559Z,99.90
2018-05-21T03:34:00.772Z,99.90
2018-05-21T03:36:30.824Z,99.90
2018-05-21T03:39:03.329Z,99.90
2018-05-21T03:41:31.989Z,99.90
2018-05-21T03:44:00.100Z,99.90
2018-05-21T03:46:28.321Z,99.90
2018-05-21T03:48:57.049Z,99.90
2018-05-21T03:51:25.284Z,99.90
2018-05-21T03:53:53.514Z,99.90
2018-05-21T03:56:22.300Z,99.90
2018-05-21T03:59:09.132Z,99.90
2018-05-21T04:01:55.933Z,99.90
2018-05-21T04:04:24.045Z,99.90
2018-05-21T04:06:52.505Z,99.90
2018-05-21T04:09:20.692Z,99.90
2018-05-21T04:11:49.789Z,99.90
2018-05-21T04:14:17.868Z,99.90
2018-05-21T04:16:45.971Z,99.90
2018-05-21T04:19:14.079Z,99.90
2018-05-21T04:21:42.196Z,99.90
2018-05-21T04:24:10.283Z,99.90
2018-05-21T04:26:39.304Z,99.90
2018-05-21T04:29:07.383Z,99.90
2018-05-21T04:31:35.473Z,99.90
2018-05-21T04:34:05.318Z,99.90
2018-05-21T04:36:34.457Z,99.90
2018-05-21T04:39:02.411Z,99.90
2018-05-21T04:41:30.484Z,99.90
2018-05-21T04:43:58.877Z,99.90
2018-05-21T04:46:26.952Z,99.90
2018-05-21T04:48:55.771Z,99.90
2018-05-21T04:51:23.896Z,99.90
2018-05-21T04:53:51.992Z,99.90
2018-05-21T04:56:20.063Z,99.90
2018-05-21T04:58:48.165Z,99.90
2018-05-21T05:01:16.340Z,99.90
2018-05-21T05:03:44.461Z,99.90
2018-05-21T05:06:13.203Z,99.90
2018-05-21T05:08:41.296Z,99.90
2018-05-21T05:11:11.045Z,99.90
2018-05-21T05:13:39.143Z,99.90
2018-05-21T05:16:08.326Z,99.90
2018-05-21T05:18:36.851Z,99.90
2018-05-21T05:21:04.961Z,99.90
2018-05-21T05:23:33.032Z,99.90
2018-05-21T05:26:01.197Z,99.90
2018-05-21T05:28:29.496Z,99.90
2018-05-21T05:30:57.580Z,99.90
2018-05-21T05:33:25.656Z,99.90
2018-05-21T05:35:55.605Z,99.90
2018-05-21T05:38:25.640Z,99.90
2018-05-21T05:40:53.708Z,99.90
2018-05-21T05:43:22.608Z,99.90
2018-05-21T05:45:51.457Z,99.90
2018-05-21T05:48:19.572Z,99.90
2018-05-21T05:50:47.669Z,99.90
2018-05-21T05:53:15.747Z,99.90
2018-05-21T05:55:43.836Z,99.90
2018-05-21T05:58:12.896Z,99.90
2018-05-21T06:00:41.033Z,99.90
2018-05-21T06:03:09.144Z,99.90
2018-05-21T06:05:37.242Z,99.90
2018-05-21T06:08:05.336Z,99.90
2018-05-21T06:10:33.436Z,99.90
2018-05-21T06:13:01.507Z,99.90
2018-05-21T06:15:31.164Z,99.90
2018-05-21T06:17:59.257Z,99.90
2018-05-21T06:20:27.356Z,99.90
2018-05-21T06:22:55.429Z,99.90
2018-05-21T06:25:24.284Z,99.90
2018-05-21T06:27:52.372Z,99.90
2018-05-21T06:30:20.450Z,99.90
2018-05-21T06:32:48.546Z,99.90
2018-05-21T06:35:16.761Z,99.90
2018-05-21T06:37:44.849Z,99.90
2018-05-21T06:40:12.932Z,99.90
2018-05-21T06:42:41.029Z,99.90
2018-05-21T06:45:09.104Z,99.90
2018-05-21T06:47:38.415Z,99.90
2018-05-21T06:50:06.585Z,99.90
2018-05-21T06:52:35.445Z,99.90
2018-05-21T06:55:03.540Z,99.90
2018-05-21T06:57:32.424Z,99.90
2018-05-21T07:00:02.164Z,99.90
2018-05-21T07:02:30.253Z,99.90
2018-05-21T07:04:58.341Z,99.90
2018-05-21T07:07:26.440Z,99.90
2018-05-21T07:09:54.771Z,99.90
2018-05-21T07:12:22.851Z,99.90
2018-05-21T07:14:50.947Z,99.90
2018-05-21T07:17:19.020Z,99.90
2018-05-21T07:48:22.253Z,99.90
2018-05-21T07:50:52.024Z,99.90
2018-05-21T07:53:20.125Z,99.90
2018-05-21T07:55:48.272Z,99.90
2018-05-21T07:58:16.390Z,99.90
2018-05-21T08:00:44.464Z,99.90
2018-05-21T08:03:12.555Z,99.90
2018-05-21T08:05:40.729Z,99.90
2018-05-21T08:08:08.844Z,99.90
2018-05-21T08:10:36.926Z,99.90
2018-05-21T08:13:06.033Z,99.90
2018-05-21T08:15:34.771Z,99.90
2018-05-21T08:18:02.981Z,99.90
2018-05-21T08:20:31.056Z,99.90
2018-05-21T08:22:59.179Z,99.90
2018-05-21T08:25:27.988Z,99.90
2018-05-21T08:27:56.802Z,99.90
2018-05-21T08:30:25.006Z,99.90
2018-05-21T08:32:53.799Z,99.90
2018-05-21T08:35:25.172Z,99.90
2018-05-21T08:37:53.346Z,99.90
2018-05-21T08:40:21.700Z,99.90
2018-05-21T08:42:49.839Z,99.90
2018-05-21T08:45:18.913Z,99.90
2018-05-21T08:47:47.101Z,99.90
2018-05-21T08:50:16.075Z,99.90
2018-05-21T08:52:44.364Z,99.90
2018-05-21T08:55:14.261Z,99.90
2018-05-21T08:57:47.356Z,99.90
2018-05-21T09:00:15.965Z,99.90
2018-05-21T09:02:44.808Z,99.90
2018-05-21T09:05:12.900Z,99.90
2018-05-21T09:07:42.904Z,99.90
2018-05-21T09:10:11.440Z,99.90
2018-05-21T09:12:42.211Z,99.90
2018-05-21T09:15:11.413Z,99.90
2018-05-21T09:17:39.510Z,99.90
2018-05-21T09:20:09.300Z,99.90
2018-05-21T09:22:38.396Z,99.90
2018-05-21T09:25:10.999Z,99.90
2018-05-21T09:27:39.945Z,99.90
2018-05-21T09:30:08.160Z,99.90
2018-05-21T09:32:37.148Z,99.90
2018-05-21T09:35:05.248Z,99.90
2018-05-21T09:37:33.632Z,99.90
2018-05-21T09:40:03.006Z,99.90
2018-05-21T09:42:31.136Z,99.90
2018-05-21T09:44:59.483Z,99.90
2018-05-21T09:47:27.647Z,99.90
2018-05-21T09:49:55.949Z,99.90
2018-05-21T09:52:25.298Z,99.90
2018-05-21T09:54:53.775Z,99.90
2018-05-21T09:57:22.537Z,99.90
2018-05-21T09:59:50.850Z,99.90
2018-05-21T10:02:19.111Z,99.90
2018-05-21T10:04:47.918Z,99.90
2018-05-21T10:07:17.010Z,99.90
2018-05-21T10:09:45.230Z,99.90
2018-05-21T10:12:14.202Z,99.90
2018-05-21T10:14:42.264Z,99.90
2018-05-21T10:17:11.061Z,99.90
2018-05-21T10:19:39.128Z,99.90
2018-05-21T10:22:07.211Z,99.90
2018-05-21T10:24:36.125Z,99.90
2018-05-21T10:27:04.399Z,99.90
2018-05-21T10:29:33.920Z,99.90
2018-05-21T10:32:02.852Z,99.90
2018-05-21T10:34:31.135Z,99.90
2018-05-21T10:36:59.536Z,99.10
2018-05-21T10:39:28.380Z,99.70
2018-05-21T10:41:56.459Z,99.90
2018-05-21T10:44:24.812Z,99.70
2018-05-21T10:46:54.539Z,99.90
2018-05-21T10:49:23.185Z,99.90
2018-05-21T10:51:51.532Z,99.90
2018-05-21T10:54:19.641Z,99.90
2018-05-21T10:56:47.929Z,99.90
2018-05-21T10:59:16.051Z,99.90
2018-05-21T11:01:44.367Z,99.60
2018-05-21T11:04:12.511Z,99.60
2018-05-21T11:06:42.456Z,99.00
2018-05-21T11:09:12.042Z,99.30
2018-05-21T11:11:40.300Z,98.40
2018-05-21T11:14:08.440Z,98.60
2018-05-21T11:16:36.529Z,97.80
2018-05-21T11:19:04.835Z,96.80
2018-05-21T11:21:32.972Z,94.60
2018-05-21T11:24:01.085Z,94.80
2018-05-21T11:26:29.261Z,94.40
2018-05-21T11:28:58.144Z,96.30
2018-05-21T11:31:26.413Z,96.80
2018-05-21T11:33:55.261Z,95.80
2018-05-21T11:36:23.342Z,93.50
2018-05-21T11:38:52.300Z,93.30
2018-05-21T11:41:20.639Z,92.00
2018-05-21T11:43:49.724Z,91.40
2018-05-21T11:46:18.738Z,93.00
2018-05-21T11:48:46.813Z,90.50
2018-05-21T11:51:15.140Z,90.10
2018-05-21T11:53:43.334Z,92.20
2018-05-21T11:56:12.073Z,93.10
2018-05-21T11:58:40.229Z,91.60
2018-05-21T12:01:09.041Z,93.70
2018-05-21T12:03:38.284Z,95.50
2018-05-21T12:06:06.516Z,83.40
2018-05-21T12:08:36.182Z,78.40
2018-05-21T12:11:05.705Z,78.30
2018-05-21T12:13:33.840Z,78.40
2018-05-21T12:16:02.100Z,75.70
2018-05-21T12:18:30.192Z,80.80
2018-05-21T12:20:58.775Z,80.10
2018-05-21T12:23:27.537Z,91.40
2018-05-21T12:25:57.463Z,82.50
2018-05-21T12:28:25.761Z,82.40
2018-05-21T12:30:56.520Z,78.50
2018-05-21T12:33:24.689Z,79.10
2018-05-21T12:35:53.012Z,81.00
2018-05-21T12:38:21.968Z,71.60
2018-05-21T12:40:51.014Z,71.70
2018-05-21T12:43:19.345Z,64.90
2018-05-21T12:45:48.113Z,71.50
2018-05-21T12:48:16.212Z,71.70
2018-05-21T12:50:44.339Z,68.90
2018-05-21T12:53:12.428Z,65.50
2018-05-21T12:55:40.644Z,67.40
2018-05-21T12:58:08.880Z,61.40
2018-05-21T13:00:40.595Z,68.00
2018-05-21T13:03:09.428Z,58.20
2018-05-21T13:05:38.560Z,58.10
2018-05-21T13:08:06.751Z,59.80
2018-05-21T13:10:35.823Z,60.30
2018-05-21T13:13:03.892Z,60.00
2018-05-21T13:15:32.128Z,58.40
2018-05-21T13:18:00.212Z,61.30
2018-05-21T13:20:29.008Z,61.50
2018-05-21T13:22:57.096Z,59.90
2018-05-21T13:25:25.500Z,59.90
2018-05-21T13:27:55.069Z,62.70
2018-05-21T13:30:23.272Z,62.60
2018-05-21T13:32:51.777Z,57.60
2018-05-21T13:35:19.876Z,58.90
2018-05-21T13:37:47.953Z,58.00
2018-05-21T13:40:16.091Z,57.70
2018-05-21T13:42:44.301Z,58.10
2018-05-21T13:45:12.375Z,59.60
2018-05-21T13:47:40.509Z,59.10
2018-05-21T13:50:09.357Z,59.70
2018-05-21T13:52:38.217Z,59.60
2018-05-21T13:55:06.391Z,59.70
2018-05-21T13:57:34.471Z,60.30
2018-05-21T14:00:02.549Z,59.80
2018-05-21T14:02:30.642Z,61.20
2018-05-21T14:04:59.007Z,59.30
2018-05-21T14:07:27.224Z,62.00
2018-05-21T14:09:56.168Z,61.40
2018-05-21T14:12:26.310Z,61.30
2018-05-21T14:14:54.368Z,59.50
2018-05-21T14:17:22.534Z,61.80
2018-05-21T14:19:50.952Z,62.30
2018-05-21T14:22:19.051Z,61.70
2018-05-21T14:24:47.206Z,60.90
2018-05-21T14:27:15.418Z,58.70
2018-05-21T14:29:44.215Z,60.60
2018-05-21T14:32:12.370Z,61.00
2018-05-21T14:34:40.470Z,60.90
2018-05-21T14:37:08.577Z,60.70
2018-05-21T14:39:36.662Z,61.30
2018-05-21T14:42:04.778Z,61.40
2018-05-21T14:44:32.871Z,61.00
2018-05-21T14:47:00.984Z,63.00
2018-05-21T14:49:29.063Z,63.40
2018-05-21T14:51:57.146Z,60.50
2018-05-21T14:54:25.235Z,64.00
2018-05-21T14:56:53.433Z,64.30
2018-05-21T14:59:22.552Z,69.20
2018-05-21T15:01:50.667Z,68.60
2018-05-21T15:04:19.444Z,66.20
2018-05-21T15:06:48.176Z,67.00
2018-05-21T15:09:16.259Z,65.00
2018-05-21T15:11:44.351Z,64.70
2018-05-21T15:14:12.604Z,64.60
2018-05-21T15:16:40.761Z,66.00
2018-05-21T15:19:08.873Z,64.50
2018-05-21T15:21:37.020Z,67.80
2018-05-21T15:24:06.144Z,63.60
2018-05-21T15:26:35.195Z,65.90
2018-05-21T15:29:04.076Z,64.80
2018-05-21T15:31:32.185Z,64.20
2018-05-21T15:34:01.255Z,67.80
2018-05-21T15:36:30.039Z,68.00
2018-05-21T15:38:58.876Z,66.50
2018-05-21T15:41:27.206Z,65.10
2018-05-21T15:43:55.288Z,68.20
2018-05-21T15:46:23.581Z,69.30
2018-05-21T15:48:51.742Z,65.40
2018-05-21T15:51:20.475Z,66.30
2018-05-21T15:53:48.703Z,67.90
2018-05-21T15:56:17.587Z,65.50
2018-05-21T15:58:45.694Z,66.50
2018-05-21T16:01:13.768Z,66.20
2018-05-21T16:03:42.648Z,67.70
2018-05-21T16:06:12.785Z,67.20
2018-05-21T16:08:41.144Z,67.20
2018-05-21T16:11:09.145Z,67.30
2018-05-21T16:13:37.292Z,67.00
2018-05-21T16:16:06.028Z,66.60
2018-05-21T16:18:35.169Z,66.70
2018-05-21T16:21:04.449Z,66.70
2018-05-21T16:23:33.177Z,64.70
2018-05-21T16:26:02.319Z,65.10
2018-05-21T16:28:30.418Z,67.00
2018-05-21T16:30:58.828Z,63.90
2018-05-21T16:33:27.040Z,64.60
2018-05-21T16:35:55.232Z,67.80
2018-05-21T16:38:23.564Z,67.00
2018-05-21T16:40:52.398Z,70.30
2018-05-21T16:43:20.900Z,69.00
2018-05-21T16:45:49.884Z,67.60
2018-05-21T16:48:18.159Z,67.80
2018-05-21T16:50:46.242Z,69.10
2018-05-21T16:53:14.740Z,69.60
2018-05-21T16:55:43.713Z,66.70
2018-05-21T16:58:11.921Z,71.50
2018-05-21T17:00:40.041Z,69.30
2018-05-21T17:03:08.176Z,70.10
2018-05-21T17:05:36.399Z,69.40
2018-05-21T17:08:04.514Z,66.40
2018-05-21T17:10:32.695Z,71.20
2018-05-21T17:13:00.781Z,69.70
2018-05-21T17:15:29.141Z,65.80
2018-05-21T17:17:57.472Z,64.50
2018-05-21T17:20:27.470Z,62.70
2018-05-21T17:22:56.215Z,65.40
2018-05-21T17:25:24.335Z,66.00
2018-05-21T17:27:54.057Z,65.70
2018-05-21T17:30:22.691Z,69.90
2018-05-21T17:32:51.311Z,67.20
2018-05-21T17:35:21.623Z,65.30
2018-05-21T17:37:50.763Z,68.90
2018-05-21T17:40:18.976Z,68.90
2018-05-21T17:42:47.508Z,70.50
2018-05-21T17:45:15.686Z,70.00
2018-05-21T17:47:43.849Z,68.00
2018-05-21T17:50:12.915Z,69.90
2018-05-21T17:52:41.772Z,69.50
2018-05-21T17:55:11.573Z,69.40
2018-05-21T17:57:40.008Z,71.30
2018-05-21T18:00:08.111Z,73.80
2018-05-21T18:02:36.670Z,74.20
2018-05-21T18:05:04.887Z,74.40
2018-05-21T18:07:34.120Z,76.00
2018-05-21T18:10:02.416Z,73.90
2018-05-21T18:12:31.488Z,76.70
2018-05-21T18:14:59.602Z,76.80
2018-05-21T18:17:28.752Z,77.80
2018-05-21T18:19:56.852Z,76.90
2018-05-21T18:22:28.919Z,78.60
2018-05-21T18:24:57.176Z,78.60
2018-05-21T18:27:25.537Z,79.30
2018-05-21T18:29:54.301Z,79.30
2018-05-21T18:32:23.176Z,81.80
2018-05-21T18:34:52.074Z,81.80
2018-05-21T18:37:20.369Z,81.00
2018-05-21T18:39:49.265Z,79.20
2018-05-21T18:42:18.327Z,79.90
2018-05-21T18:44:46.496Z,82.30
2018-05-21T18:47:14.602Z,82.20
2018-05-21T18:49:43.381Z,83.20
2018-05-21T18:52:11.478Z,85.90
2018-05-21T18:54:40.323Z,84.20
2018-05-21T18:57:09.467Z,86.00
2018-05-21T18:59:37.570Z,87.80
2018-05-21T19:02:06.350Z,87.90
2018-05-21T19:04:35.417Z,90.80
2018-05-21T19:07:03.684Z,90.90
2018-05-21T19:09:31.808Z,91.20
2018-05-21T19:11:59.881Z,92.60
2018-05-21T19:14:28.087Z,93.10
2018-05-21T19:16:56.939Z,93.20
2018-05-21T19:19:25.804Z,95.90
2018-05-21T19:21:53.918Z,95.80
2018-05-21T19:24:22.029Z,97.60
2018-05-21T19:26:50.512Z,98.40
2018-05-21T19:29:18.540Z,97.60
2018-05-21T19:31:46.780Z,98.40
2018-05-21T19:34:14.974Z,99.90
2018-05-21T19:36:43.069Z,99.90
2018-05-21T19:39:11.145Z,99.90
2018-05-21T19:41:39.256Z,99.90
2018-05-21T19:44:08.250Z,99.90
2018-05-21T19:46:36.586Z,99.90
2018-05-21T19:49:06.422Z,99.90
2018-05-21T19:51:34.522Z,99.90
2018-05-21T19:54:02.609Z,99.90
2018-05-21T19:56:31.707Z,99.90
2018-05-21T19:59:00.437Z,99.90
2018-05-21T20:01:28.585Z,99.90
2018-05-21T20:03:58.513Z,99.90
2018-05-21T20:06:26.756Z,99.90
2018-05-21T20:08:54.889Z,99.90
2018-05-21T20:11:23.224Z,99.90
2018-05-21T20:13:52.093Z,99.90
2018-05-21T20:16:20.327Z,99.90
2018-05-21T20:18:48.424Z,99.90
2018-05-21T20:21:16.955Z,99.90
2018-05-21T20:23:45.821Z,99.90
2018-05-21T20:26:14.125Z,99.90
2018-05-21T20:28:42.236Z,99.90
2018-05-21T20:31:10.492Z,99.90
2018-05-21T20:33:39.278Z,99.90
2018-05-21T20:36:07.557Z,99.90
2018-05-21T20:38:35.868Z,99.90
2018-05-21T20:41:03.965Z,99.90
2018-05-21T20:43:32.898Z,99.90
2018-05-21T20:46:01.191Z,99.90
2018-05-21T20:48:30.256Z,99.90
2018-05-21T20:50:58.454Z,99.90
2018-05-21T20:53:28.330Z,99.90
2018-05-21T20:55:58.292Z,99.90
2018-05-21T20:58:26.515Z,99.90
2018-05-21T21:00:55.441Z,99.90
2018-05-21T21:03:25.215Z,99.90
2018-05-21T21:05:54.301Z,99.90
2018-05-21T21:08:22.423Z,99.90
2018-05-21T21:10:50.537Z,99.90
2018-05-21T21:13:19.458Z,99.90
2018-05-21T21:15:49.495Z,99.90
2018-05-21T21:18:19.229Z,99.90
2018-05-21T21:20:49.141Z,99.90
2018-05-21T21:23:17.397Z,99.90
2018-05-21T21:25:47.320Z,99.90
2018-05-21T21:28:15.655Z,99.90
2018-05-21T21:30:43.779Z,99.90
2018-05-21T21:33:11.932Z,99.90
2018-05-21T21:35:40.865Z,99.90
2018-05-21T21:38:08.977Z,99.90
2018-05-21T21:40:37.259Z,99.90
2018-05-21T21:43:06.536Z,99.90
2018-05-21T21:45:34.677Z,99.90
2018-05-21T21:48:03.105Z,99.90
2018-05-21T21:50:31.392Z,99.90
2018-05-21T21:53:00.436Z,99.90
2018-05-21T21:55:28.520Z,99.90
2018-05-21T21:57:56.947Z,99.90
2018-05-21T22:00:25.943Z,99.90
2018-05-21T22:02:54.016Z,99.90
2018-05-21T22:05:22.272Z,99.90
2018-05-21T22:07:50.341Z,99.90
2018-05-21T22:10:19.473Z,99.90
2018-05-21T22:12:51.135Z,99.90
2018-05-21T22:15:19.224Z,99.90
2018-05-21T22:17:47.469Z,99.90
2018-05-21T22:20:15.551Z,99.90
2018-05-21T22:22:43.677Z,99.90
2018-05-21T22:25:12.422Z,99.90
2018-05-21T22:27:40.500Z,99.90
2018-05-21T22:30:09.625Z,99.90
2018-05-21T22:32:37.736Z,99.90
2018-05-21T22:35:05.828Z,99.90
2018-05-21T22:37:33.928Z,99.90
2018-05-21T22:40:01.997Z,99.90
2018-05-21T22:42:33.264Z,99.90
2018-05-21T22:45:01.506Z,99.90
2018-05-21T22:47:29.592Z,99.90
2018-05-21T22:49:59.479Z,99.90
2018-05-21T22:52:27.721Z,99.90
2018-05-21T22:54:57.524Z,99.90
2018-05-21T22:57:27.284Z,99.90
2018-05-21T22:59:57.853Z,99.90
2018-05-21T23:02:26.026Z,99.90
2018-05-21T23:04:54.376Z,99.90
2018-05-21T23:07:22.624Z,99.90
2018-05-21T23:09:50.721Z,99.90
2018-05-21T23:12:19.807Z,99.90
2018-05-21T23:14:47.869Z,99.90
2018-05-21T23:17:15.973Z,99.90
2018-05-21T23:19:44.091Z,99.90
2018-05-21T23:22:13.664Z,99.90
2018-05-21T23:24:42.101Z,99.90
2018-05-21T23:27:10.596Z,99.90
2018-05-21T23:29:41.572Z,99.90
2018-05-21T23:32:09.829Z,99.90
2018-05-21T23:34:38.616Z,99.90
2018-05-21T23:37:08.079Z,99.90
2018-05-21T23:39:36.912Z,99.90
2018-05-21T23:42:05.268Z,99.90
2018-05-21T23:44:34.064Z,99.90
2018-05-21T23:47:02.153Z,99.90
2018-05-21T23:49:31.295Z,99.90
2018-05-21T23:52:00.126Z,99.90
2018-05-21T23:54:28.614Z,99.90
2018-05-21T23:56:56.720Z,99.90
2018-05-21T23:59:24.913Z,99.90
